sensor_id;sensor_type;location;lat;lon;timestamp;P1;durP1;ratioP1;P2;durP2;ratioP2
74415;SDS011;62850;42.428;25.618;2022-09-09T00:00:24;4.75;;;2.58;;
74415;SDS011;62850;42.428;25.618;2022-09-09T00:08:20;6.50;;;2.70;;
74415;SDS011;62850;42.428;25.618;2022-09-09T00:10:54;10.30;;;2.63;;
74415;SDS011;62850;42.428;25.618;2022-09-09T00:13:33;6.40;;;2.80;;
74415;SDS011;62850;42.428;25.618;2022-09-09T00:16:04;5.80;;;2.50;;
74415;SDS011;62850;42.428;25.618;2022-09-09T00:27:30;7.10;;;2.30;;
74415;SDS011;62850;42.428;25.618;2022-09-09T00:32:48;5.07;;;2.35;;
74415;SDS011;62850;42.428;25.618;2022-09-09T00:37:44;5.13;;;2.80;;
74415;SDS011;62850;42.428;25.618;2022-09-09T00:40:33;6.22;;;2.53;;
74415;SDS011;62850;42.428;25.618;2022-09-09T00:56:31;6.65;;;2.45;;
74415;SDS011;62850;42.428;25.618;2022-09-09T00:59:20;3.85;;;2.40;;
74415;SDS011;62850;42.428;25.618;2022-09-09T01:01:48;6.03;;;2.33;;
74415;SDS011;62850;42.428;25.618;2022-09-09T01:04:16;6.57;;;2.47;;
74415;SDS011;62850;42.428;25.618;2022-09-09T01:06:50;6.15;;;2.83;;
74415;SDS011;62850;42.428;25.618;2022-09-09T01:09:27;7.53;;;2.50;;
74415;SDS011;62850;42.428;25.618;2022-09-09T01:17:01;6.63;;;3.33;;
74415;SDS011;62850;42.428;25.618;2022-09-09T01:19:55;9.95;;;2.67;;
74415;SDS011;62850;42.428;25.618;2022-09-09T01:27:51;5.13;;;2.70;;
74415;SDS011;62850;42.428;25.618;2022-09-09T01:30:21;8.10;;;3.00;;
74415;SDS011;62850;42.428;25.618;2022-09-09T01:32:48;4.97;;;2.60;;
74415;SDS011;62850;42.428;25.618;2022-09-09T01:35:29;7.65;;;2.85;;
74415;SDS011;62850;42.428;25.618;2022-09-09T01:38:03;6.75;;;3.08;;
74415;SDS011;62850;42.428;25.618;2022-09-09T01:40:29;6.03;;;2.88;;
74415;SDS011;62850;42.428;25.618;2022-09-09T01:42:54;7.45;;;2.90;;
74415;SDS011;62850;42.428;25.618;2022-09-09T01:45:21;5.32;;;2.53;;
74415;SDS011;62850;42.428;25.618;2022-09-09T01:47:47;6.45;;;2.80;;
74415;SDS011;62850;42.428;25.618;2022-09-09T01:50:14;5.53;;;2.75;;
74415;SDS011;62850;42.428;25.618;2022-09-09T01:52:41;5.53;;;2.60;;
74415;SDS011;62850;42.428;25.618;2022-09-09T01:55:08;5.93;;;2.72;;
74415;SDS011;62850;42.428;25.618;2022-09-09T01:57:44;4.13;;;2.53;;
74415;SDS011;62850;42.428;25.618;2022-09-09T02:00:32;4.97;;;2.50;;
74415;SDS011;62850;42.428;25.618;2022-09-09T02:03:22;4.68;;;2.60;;
74415;SDS011;62850;42.428;25.618;2022-09-09T02:06:00;5.05;;;2.72;;
74415;SDS011;62850;42.428;25.618;2022-09-09T02:08:48;5.63;;;2.78;;
74415;SDS011;62850;42.428;25.618;2022-09-09T02:11:16;4.47;;;2.63;;
74415;SDS011;62850;42.428;25.618;2022-09-09T02:13:47;6.10;;;2.90;;
74415;SDS011;62850;42.428;25.618;2022-09-09T02:19:08;6.43;;;2.95;;
74415;SDS011;62850;42.428;25.618;2022-09-09T02:21:39;5.93;;;2.80;;
74415;SDS011;62850;42.428;25.618;2022-09-09T02:24:07;6.30;;;2.60;;
74415;SDS011;62850;42.428;25.618;2022-09-09T02:26:36;4.95;;;2.42;;
74415;SDS011;62850;42.428;25.618;2022-09-09T02:29:06;4.70;;;2.78;;
74415;SDS011;62850;42.428;25.618;2022-09-09T02:31:36;6.28;;;2.42;;
74415;SDS011;62850;42.428;25.618;2022-09-09T02:34:02;5.88;;;2.90;;
74415;SDS011;62850;42.428;25.618;2022-09-09T02:36:31;6.53;;;2.42;;
74415;SDS011;62850;42.428;25.618;2022-09-09T02:38:58;4.50;;;2.58;;
74415;SDS011;62850;42.428;25.618;2022-09-09T02:41:32;5.47;;;2.45;;
74415;SDS011;62850;42.428;25.618;2022-09-09T02:43:59;6.32;;;2.70;;
74415;SDS011;62850;42.428;25.618;2022-09-09T02:49:10;4.95;;;2.13;;
74415;SDS011;62850;42.428;25.618;2022-09-09T02:51:51;8.63;;;2.60;;
74415;SDS011;62850;42.428;25.618;2022-09-09T02:54:29;6.07;;;2.55;;
74415;SDS011;62850;42.428;25.618;2022-09-09T02:56:56;6.80;;;2.55;;
74415;SDS011;62850;42.428;25.618;2022-09-09T02:59:31;6.13;;;2.38;;
74415;SDS011;62850;42.428;25.618;2022-09-09T03:01:57;6.65;;;2.67;;
74415;SDS011;62850;42.428;25.618;2022-09-09T03:04:23;6.55;;;2.65;;
74415;SDS011;62850;42.428;25.618;2022-09-09T03:06:49;6.20;;;2.53;;
74415;SDS011;62850;42.428;25.618;2022-09-09T03:09:15;4.88;;;2.42;;
74415;SDS011;62850;42.428;25.618;2022-09-09T03:11:41;6.35;;;2.53;;
74415;SDS011;62850;42.428;25.618;2022-09-09T03:14:06;6.70;;;2.72;;
74415;SDS011;62850;42.428;25.618;2022-09-09T03:16:32;4.32;;;2.45;;
74415;SDS011;62850;42.428;25.618;2022-09-09T03:19:00;6.47;;;2.70;;
74415;SDS011;62850;42.428;25.618;2022-09-09T03:21:26;6.10;;;2.75;;
74415;SDS011;62850;42.428;25.618;2022-09-09T03:23:51;8.93;;;2.60;;
74415;SDS011;62850;42.428;25.618;2022-09-09T03:26:17;6.32;;;2.45;;
74415;SDS011;62850;42.428;25.618;2022-09-09T03:28:42;6.63;;;2.90;;
74415;SDS011;62850;42.428;25.618;2022-09-09T03:31:09;8.15;;;2.72;;
74415;SDS011;62850;42.428;25.618;2022-09-09T03:33:36;6.75;;;3.03;;
74415;SDS011;62850;42.428;25.618;2022-09-09T03:36:03;4.78;;;2.63;;
74415;SDS011;62850;42.428;25.618;2022-09-09T03:38:28;5.35;;;2.47;;
74415;SDS011;62850;42.428;25.618;2022-09-09T03:40:57;7.18;;;2.90;;
74415;SDS011;62850;42.428;25.618;2022-09-09T03:43:23;8.25;;;2.88;;
74415;SDS011;62850;42.428;25.618;2022-09-09T03:45:50;5.97;;;2.88;;
74415;SDS011;62850;42.428;25.618;2022-09-09T03:48:16;10.23;;;2.67;;
74415;SDS011;62850;42.428;25.618;2022-09-09T03:50:48;7.90;;;2.70;;
74415;SDS011;62850;42.428;25.618;2022-09-09T03:53:16;8.82;;;2.97;;
74415;SDS011;62850;42.428;25.618;2022-09-09T03:55:47;9.35;;;2.60;;
74415;SDS011;62850;42.428;25.618;2022-09-09T03:58:20;7.47;;;2.30;;
74415;SDS011;62850;42.428;25.618;2022-09-09T04:00:56;6.95;;;3.25;;
74415;SDS011;62850;42.428;25.618;2022-09-09T04:05:50;5.88;;;3.13;;
74415;SDS011;62850;42.428;25.618;2022-09-09T04:08:20;8.73;;;3.30;;
74415;SDS011;62850;42.428;25.618;2022-09-09T04:10:47;5.72;;;3.13;;
74415;SDS011;62850;42.428;25.618;2022-09-09T04:13:16;6.40;;;3.13;;
74415;SDS011;62850;42.428;25.618;2022-09-09T04:15:43;7.50;;;3.05;;
74415;SDS011;62850;42.428;25.618;2022-09-09T04:18:10;7.13;;;3.38;;
74415;SDS011;62850;42.428;25.618;2022-09-09T04:20:36;6.68;;;3.42;;
74415;SDS011;62850;42.428;25.618;2022-09-09T04:23:02;7.65;;;3.30;;
74415;SDS011;62850;42.428;25.618;2022-09-09T04:25:29;9.05;;;3.35;;
74415;SDS011;62850;42.428;25.618;2022-09-09T04:27:55;8.50;;;3.25;;
74415;SDS011;62850;42.428;25.618;2022-09-09T04:30:21;7.30;;;3.30;;
74415;SDS011;62850;42.428;25.618;2022-09-09T04:32:47;6.78;;;3.00;;
74415;SDS011;62850;42.428;25.618;2022-09-09T04:35:12;5.50;;;2.90;;
74415;SDS011;62850;42.428;25.618;2022-09-09T04:37:38;10.27;;;3.40;;
74415;SDS011;62850;42.428;25.618;2022-09-09T04:40:04;7.47;;;3.38;;
74415;SDS011;62850;42.428;25.618;2022-09-09T04:42:30;8.48;;;2.97;;
74415;SDS011;62850;42.428;25.618;2022-09-09T04:44:59;8.55;;;3.75;;
74415;SDS011;62850;42.428;25.618;2022-09-09T04:47:24;7.13;;;3.30;;
74415;SDS011;62850;42.428;25.618;2022-09-09T04:49:50;6.90;;;3.42;;
74415;SDS011;62850;42.428;25.618;2022-09-09T04:52:16;7.63;;;3.53;;
74415;SDS011;62850;42.428;25.618;2022-09-09T04:54:42;5.38;;;3.08;;
74415;SDS011;62850;42.428;25.618;2022-09-09T04:57:07;5.97;;;2.72;;
74415;SDS011;62850;42.428;25.618;2022-09-09T05:02:10;7.15;;;3.47;;
74415;SDS011;62850;42.428;25.618;2022-09-09T05:04:36;8.70;;;3.38;;
74415;SDS011;62850;42.428;25.618;2022-09-09T05:07:01;11.35;;;3.35;;
74415;SDS011;62850;42.428;25.618;2022-09-09T05:09:27;7.95;;;3.50;;
74415;SDS011;62850;42.428;25.618;2022-09-09T05:11:53;9.43;;;3.42;;
74415;SDS011;62850;42.428;25.618;2022-09-09T05:14:18;6.18;;;3.40;;
74415;SDS011;62850;42.428;25.618;2022-09-09T05:16:44;7.05;;;3.15;;
74415;SDS011;62850;42.428;25.618;2022-09-09T05:19:10;8.23;;;3.15;;
74415;SDS011;62850;42.428;25.618;2022-09-09T05:21:36;9.13;;;3.00;;
74415;SDS011;62850;42.428;25.618;2022-09-09T05:24:02;8.27;;;2.88;;
74415;SDS011;62850;42.428;25.618;2022-09-09T05:26:27;8.65;;;3.88;;
74415;SDS011;62850;42.428;25.618;2022-09-09T05:28:54;8.05;;;3.22;;
74415;SDS011;62850;42.428;25.618;2022-09-09T05:31:20;10.07;;;4.03;;
74415;SDS011;62850;42.428;25.618;2022-09-09T05:33:46;7.38;;;3.85;;
74415;SDS011;62850;42.428;25.618;2022-09-09T05:36:17;6.30;;;3.30;;
74415;SDS011;62850;42.428;25.618;2022-09-09T05:38:45;8.93;;;3.58;;
74415;SDS011;62850;42.428;25.618;2022-09-09T05:41:11;6.47;;;3.60;;
74415;SDS011;62850;42.428;25.618;2022-09-09T05:43:37;8.50;;;4.18;;
74415;SDS011;62850;42.428;25.618;2022-09-09T05:48:39;8.43;;;4.03;;
74415;SDS011;62850;42.428;25.618;2022-09-09T05:51:12;8.93;;;3.80;;
74415;SDS011;62850;42.428;25.618;2022-09-09T05:53:42;9.52;;;4.18;;
74415;SDS011;62850;42.428;25.618;2022-09-09T05:58:36;8.30;;;4.65;;
74415;SDS011;62850;42.428;25.618;2022-09-09T06:03:28;7.97;;;4.20;;
74415;SDS011;62850;42.428;25.618;2022-09-09T06:05:57;12.80;;;4.75;;
74415;SDS011;62850;42.428;25.618;2022-09-09T06:08:26;7.88;;;4.55;;
74415;SDS011;62850;42.428;25.618;2022-09-09T06:10:52;19.08;;;4.40;;
74415;SDS011;62850;42.428;25.618;2022-09-09T06:13:17;6.10;;;3.65;;
74415;SDS011;62850;42.428;25.618;2022-09-09T06:15:52;9.32;;;3.78;;
74415;SDS011;62850;42.428;25.618;2022-09-09T06:18:18;6.85;;;3.97;;
74415;SDS011;62850;42.428;25.618;2022-09-09T06:21:03;9.55;;;4.35;;
74415;SDS011;62850;42.428;25.618;2022-09-09T06:23:31;7.13;;;4.00;;
74415;SDS011;62850;42.428;25.618;2022-09-09T06:26:04;9.13;;;3.90;;
74415;SDS011;62850;42.428;25.618;2022-09-09T06:28:33;7.43;;;3.72;;
74415;SDS011;62850;42.428;25.618;2022-09-09T06:31:03;7.22;;;3.60;;
74415;SDS011;62850;42.428;25.618;2022-09-09T06:33:31;13.38;;;3.95;;
74415;SDS011;62850;42.428;25.618;2022-09-09T06:36:02;12.10;;;4.45;;
74415;SDS011;62850;42.428;25.618;2022-09-09T06:38:31;8.70;;;3.53;;
74415;SDS011;62850;42.428;25.618;2022-09-09T06:40:58;6.88;;;3.22;;
74415;SDS011;62850;42.428;25.618;2022-09-09T06:43:25;8.02;;;2.80;;
74415;SDS011;62850;42.428;25.618;2022-09-09T06:45:55;10.00;;;3.58;;
74415;SDS011;62850;42.428;25.618;2022-09-09T06:48:22;11.20;;;4.60;;
74415;SDS011;62850;42.428;25.618;2022-09-09T06:50:47;12.25;;;4.20;;
74415;SDS011;62850;42.428;25.618;2022-09-09T06:53:17;9.65;;;3.85;;
74415;SDS011;62850;42.428;25.618;2022-09-09T06:55:44;5.15;;;2.63;;
74415;SDS011;62850;42.428;25.618;2022-09-09T06:58:10;8.82;;;3.78;;
74415;SDS011;62850;42.428;25.618;2022-09-09T07:00:36;9.20;;;4.50;;
74415;SDS011;62850;42.428;25.618;2022-09-09T07:03:03;10.30;;;5.60;;
74415;SDS011;62850;42.428;25.618;2022-09-09T07:05:31;16.73;;;8.55;;
74415;SDS011;62850;42.428;25.618;2022-09-09T07:07:56;24.83;;;9.82;;
74415;SDS011;62850;42.428;25.618;2022-09-09T07:10:22;21.50;;;9.75;;
74415;SDS011;62850;42.428;25.618;2022-09-09T07:12:51;18.10;;;7.63;;
74415;SDS011;62850;42.428;25.618;2022-09-09T07:15:18;55.65;;;20.02;;
74415;SDS011;62850;42.428;25.618;2022-09-09T07:17:47;49.15;;;18.05;;
74415;SDS011;62850;42.428;25.618;2022-09-09T07:20:13;19.27;;;6.32;;
74415;SDS011;62850;42.428;25.618;2022-09-09T07:22:40;14.85;;;5.45;;
74415;SDS011;62850;42.428;25.618;2022-09-09T07:25:06;15.20;;;6.10;;
74415;SDS011;62850;42.428;25.618;2022-09-09T07:27:32;13.90;;;5.78;;
74415;SDS011;62850;42.428;25.618;2022-09-09T07:29:58;11.43;;;4.88;;
74415;SDS011;62850;42.428;25.618;2022-09-09T07:32:24;9.68;;;3.28;;
74415;SDS011;62850;42.428;25.618;2022-09-09T07:34:51;10.00;;;2.90;;
74415;SDS011;62850;42.428;25.618;2022-09-09T07:37:16;7.43;;;2.45;;
74415;SDS011;62850;42.428;25.618;2022-09-09T07:39:42;6.25;;;2.50;;
74415;SDS011;62850;42.428;25.618;2022-09-09T07:42:08;6.85;;;2.50;;
74415;SDS011;62850;42.428;25.618;2022-09-09T07:44:36;6.88;;;2.70;;
74415;SDS011;62850;42.428;25.618;2022-09-09T07:47:02;6.70;;;2.33;;
74415;SDS011;62850;42.428;25.618;2022-09-09T07:49:28;9.80;;;2.88;;
74415;SDS011;62850;42.428;25.618;2022-09-09T07:51:53;5.15;;;2.70;;
74415;SDS011;62850;42.428;25.618;2022-09-09T07:54:19;6.85;;;3.38;;
74415;SDS011;62850;42.428;25.618;2022-09-09T07:56:45;5.90;;;3.40;;
74415;SDS011;62850;42.428;25.618;2022-09-09T07:59:12;10.85;;;3.08;;
74415;SDS011;62850;42.428;25.618;2022-09-09T08:01:42;6.68;;;2.72;;
74415;SDS011;62850;42.428;25.618;2022-09-09T08:04:11;7.25;;;2.85;;
74415;SDS011;62850;42.428;25.618;2022-09-09T08:06:42;9.10;;;3.08;;
74415;SDS011;62850;42.428;25.618;2022-09-09T08:09:18;8.52;;;3.30;;
74415;SDS011;62850;42.428;25.618;2022-09-09T08:11:45;7.80;;;3.17;;
74415;SDS011;62850;42.428;25.618;2022-09-09T08:14:11;7.22;;;2.53;;
74415;SDS011;62850;42.428;25.618;2022-09-09T08:16:38;7.88;;;2.20;;
74415;SDS011;62850;42.428;25.618;2022-09-09T08:19:06;7.53;;;2.70;;
74415;SDS011;62850;42.428;25.618;2022-09-09T08:21:33;10.65;;;2.80;;
74415;SDS011;62850;42.428;25.618;2022-09-09T08:24:02;7.25;;;2.40;;
74415;SDS011;62850;42.428;25.618;2022-09-09T08:26:32;7.18;;;2.15;;
74415;SDS011;62850;42.428;25.618;2022-09-09T08:29:00;13.23;;;2.80;;
74415;SDS011;62850;42.428;25.618;2022-09-09T08:31:35;5.93;;;2.60;;
74415;SDS011;62850;42.428;25.618;2022-09-09T08:34:02;4.85;;;2.47;;
74415;SDS011;62850;42.428;25.618;2022-09-09T08:36:31;5.93;;;2.50;;
74415;SDS011;62850;42.428;25.618;2022-09-09T08:38:58;4.53;;;2.58;;
74415;SDS011;62850;42.428;25.618;2022-09-09T08:52:16;7.40;;;3.30;;
74415;SDS011;62850;42.428;25.618;2022-09-09T08:54:55;9.02;;;2.78;;
74415;SDS011;62850;42.428;25.618;2022-09-09T08:57:25;5.32;;;2.97;;
74415;SDS011;62850;42.428;25.618;2022-09-09T08:59:52;6.10;;;2.67;;
74415;SDS011;62850;42.428;25.618;2022-09-09T09:02:38;6.40;;;3.50;;
74415;SDS011;62850;42.428;25.618;2022-09-09T09:13:14;9.63;;;4.18;;
74415;SDS011;62850;42.428;25.618;2022-09-09T09:15:48;11.27;;;3.50;;
74415;SDS011;62850;42.428;25.618;2022-09-09T09:18:18;11.18;;;3.85;;
74415;SDS011;62850;42.428;25.618;2022-09-09T09:23:12;7.68;;;3.35;;
74415;SDS011;62850;42.428;25.618;2022-09-09T09:25:46;7.00;;;3.80;;
74415;SDS011;62850;42.428;25.618;2022-09-09T09:28:13;5.82;;;3.70;;
74415;SDS011;62850;42.428;25.618;2022-09-09T09:36:19;5.97;;;2.80;;
74415;SDS011;62850;42.428;25.618;2022-09-09T09:38:52;6.97;;;3.22;;
74415;SDS011;62850;42.428;25.618;2022-09-09T09:41:28;7.97;;;3.65;;
74415;SDS011;62850;42.428;25.618;2022-09-09T09:44:00;7.20;;;2.95;;
74415;SDS011;62850;42.428;25.618;2022-09-09T09:46:26;5.10;;;2.40;;
74415;SDS011;62850;42.428;25.618;2022-09-09T09:48:59;6.18;;;3.00;;
74415;SDS011;62850;42.428;25.618;2022-09-09T09:54:09;8.20;;;3.40;;
74415;SDS011;62850;42.428;25.618;2022-09-09T09:56:48;5.88;;;3.20;;
74415;SDS011;62850;42.428;25.618;2022-09-09T09:59:46;6.78;;;3.20;;
74415;SDS011;62850;42.428;25.618;2022-09-09T10:02:10;5.95;;;3.08;;
74415;SDS011;62850;42.428;25.618;2022-09-09T10:04:43;7.82;;;3.47;;
74415;SDS011;62850;42.428;25.618;2022-09-09T10:07:17;9.18;;;3.60;;
74415;SDS011;62850;42.428;25.618;2022-09-09T10:09:44;7.70;;;3.15;;
74415;SDS011;62850;42.428;25.618;2022-09-09T10:22:39;6.90;;;3.08;;
74415;SDS011;62850;42.428;25.618;2022-09-09T10:25:17;5.97;;;3.08;;
74415;SDS011;62850;42.428;25.618;2022-09-09T10:33:09;8.48;;;3.72;;
74415;SDS011;62850;42.428;25.618;2022-09-09T10:35:44;9.35;;;3.70;;
74415;SDS011;62850;42.428;25.618;2022-09-09T10:57:04;8.38;;;3.20;;
74415;SDS011;62850;42.428;25.618;2022-09-09T10:59:40;7.15;;;2.90;;
74415;SDS011;62850;42.428;25.618;2022-09-09T11:04:42;5.70;;;3.13;;
74415;SDS011;62850;42.428;25.618;2022-09-09T11:07:18;9.40;;;3.70;;
74415;SDS011;62850;42.428;25.618;2022-09-09T11:09:53;9.07;;;4.28;;
74415;SDS011;62850;42.428;25.618;2022-09-09T11:12:23;5.63;;;3.80;;
74415;SDS011;62850;42.428;25.618;2022-09-09T11:18:11;5.18;;;3.15;;
74415;SDS011;62850;42.428;25.618;2022-09-09T11:20:21;7.63;;;3.03;;
74415;SDS011;62850;42.428;25.618;2022-09-09T11:25:26;8.40;;;3.63;;
74415;SDS011;62850;42.428;25.618;2022-09-09T11:30:56;5.45;;;2.55;;
74415;SDS011;62850;42.428;25.618;2022-09-09T11:36:36;9.68;;;2.50;;
74415;SDS011;62850;42.428;25.618;2022-09-09T11:41:45;4.57;;;2.35;;
74415;SDS011;62850;42.428;25.618;2022-09-09T11:44:17;3.90;;;2.50;;
74415;SDS011;62850;42.428;25.618;2022-09-09T11:46:49;6.22;;;2.75;;
74415;SDS011;62850;42.428;25.618;2022-09-09T11:49:26;5.20;;;2.70;;
74415;SDS011;62850;42.428;25.618;2022-09-09T11:51:53;8.05;;;3.22;;
74415;SDS011;62850;42.428;25.618;2022-09-09T11:56:58;5.82;;;3.08;;
74415;SDS011;62850;42.428;25.618;2022-09-09T11:59:25;7.38;;;2.92;;
74415;SDS011;62850;42.428;25.618;2022-09-09T12:02:08;5.30;;;2.67;;
74415;SDS011;62850;42.428;25.618;2022-09-09T12:12:34;6.97;;;3.20;;
74415;SDS011;62850;42.428;25.618;2022-09-09T12:17:37;6.95;;;4.00;;
74415;SDS011;62850;42.428;25.618;2022-09-09T12:28:11;5.25;;;3.13;;
74415;SDS011;62850;42.428;25.618;2022-09-09T12:31:03;5.50;;;2.90;;
74415;SDS011;62850;42.428;25.618;2022-09-09T12:33:33;6.57;;;3.47;;
74415;SDS011;62850;42.428;25.618;2022-09-09T12:36:00;6.20;;;3.45;;
74415;SDS011;62850;42.428;25.618;2022-09-09T12:38:35;7.97;;;3.67;;
74415;SDS011;62850;42.428;25.618;2022-09-09T12:41:03;7.88;;;3.22;;
74415;SDS011;62850;42.428;25.618;2022-09-09T12:43:29;6.32;;;3.25;;
74415;SDS011;62850;42.428;25.618;2022-09-09T12:45:56;5.38;;;3.42;;
74415;SDS011;62850;42.428;25.618;2022-09-09T12:48:35;5.13;;;3.70;;
74415;SDS011;62850;42.428;25.618;2022-09-09T12:51:06;8.00;;;3.20;;
74415;SDS011;62850;42.428;25.618;2022-09-09T12:53:42;5.63;;;3.70;;
74415;SDS011;62850;42.428;25.618;2022-09-09T12:56:19;6.00;;;3.00;;
74415;SDS011;62850;42.428;25.618;2022-09-09T12:58:51;6.35;;;3.53;;
74415;SDS011;62850;42.428;25.618;2022-09-09T13:01:20;6.00;;;3.42;;
74415;SDS011;62850;42.428;25.618;2022-09-09T13:03:49;5.40;;;3.15;;
74415;SDS011;62850;42.428;25.618;2022-09-09T13:06:19;5.80;;;3.55;;
74415;SDS011;62850;42.428;25.618;2022-09-09T13:08:49;5.50;;;3.53;;
74415;SDS011;62850;42.428;25.618;2022-09-09T13:11:31;7.60;;;3.40;;
74415;SDS011;62850;42.428;25.618;2022-09-09T13:14:03;7.75;;;3.97;;
74415;SDS011;62850;42.428;25.618;2022-09-09T13:16:30;7.15;;;3.08;;
74415;SDS011;62850;42.428;25.618;2022-09-09T13:18:59;5.22;;;3.10;;
74415;SDS011;62850;42.428;25.618;2022-09-09T13:21:33;6.10;;;3.28;;
74415;SDS011;62850;42.428;25.618;2022-09-09T13:23:59;7.68;;;3.10;;
74415;SDS011;62850;42.428;25.618;2022-09-09T13:26:28;5.55;;;3.08;;
74415;SDS011;62850;42.428;25.618;2022-09-09T13:28:55;5.38;;;2.83;;
74415;SDS011;62850;42.428;25.618;2022-09-09T13:31:34;6.18;;;3.13;;
74415;SDS011;62850;42.428;25.618;2022-09-09T13:37:05;5.43;;;2.80;;
74415;SDS011;62850;42.428;25.618;2022-09-09T13:39:32;6.38;;;2.90;;
74415;SDS011;62850;42.428;25.618;2022-09-09T13:41:59;6.95;;;3.10;;
74415;SDS011;62850;42.428;25.618;2022-09-09T13:44:27;6.50;;;3.28;;
74415;SDS011;62850;42.428;25.618;2022-09-09T13:47:03;6.88;;;3.17;;
74415;SDS011;62850;42.428;25.618;2022-09-09T13:49:44;8.77;;;4.90;;
74415;SDS011;62850;42.428;25.618;2022-09-09T13:52:14;7.10;;;3.50;;
74415;SDS011;62850;42.428;25.618;2022-09-09T13:54:43;5.90;;;3.47;;
74415;SDS011;62850;42.428;25.618;2022-09-09T13:57:17;6.95;;;3.15;;
74415;SDS011;62850;42.428;25.618;2022-09-09T13:59:50;5.88;;;3.20;;
74415;SDS011;62850;42.428;25.618;2022-09-09T14:02:17;7.90;;;3.25;;
74415;SDS011;62850;42.428;25.618;2022-09-09T14:04:43;9.25;;;3.75;;
74415;SDS011;62850;42.428;25.618;2022-09-09T14:07:13;5.47;;;3.15;;
74415;SDS011;62850;42.428;25.618;2022-09-09T14:09:40;5.05;;;2.92;;
74415;SDS011;62850;42.428;25.618;2022-09-09T14:12:10;5.97;;;2.72;;
74415;SDS011;62850;42.428;25.618;2022-09-09T14:14:37;5.43;;;3.03;;
74415;SDS011;62850;42.428;25.618;2022-09-09T14:17:02;6.00;;;2.88;;
74415;SDS011;62850;42.428;25.618;2022-09-09T14:19:28;4.68;;;2.88;;
74415;SDS011;62850;42.428;25.618;2022-09-09T14:21:56;5.47;;;2.83;;
74415;SDS011;62850;42.428;25.618;2022-09-09T14:24:22;7.57;;;2.60;;
74415;SDS011;62850;42.428;25.618;2022-09-09T14:26:48;5.35;;;2.90;;
74415;SDS011;62850;42.428;25.618;2022-09-09T14:29:14;4.55;;;2.58;;
74415;SDS011;62850;42.428;25.618;2022-09-09T14:31:40;6.95;;;3.00;;
74415;SDS011;62850;42.428;25.618;2022-09-09T14:34:05;5.70;;;3.28;;
74415;SDS011;62850;42.428;25.618;2022-09-09T14:36:31;7.82;;;3.28;;
74415;SDS011;62850;42.428;25.618;2022-09-09T14:38:57;4.90;;;3.20;;
74415;SDS011;62850;42.428;25.618;2022-09-09T14:41:23;5.05;;;2.80;;
74415;SDS011;62850;42.428;25.618;2022-09-09T14:43:50;5.93;;;3.10;;
74415;SDS011;62850;42.428;25.618;2022-09-09T14:46:17;8.38;;;3.03;;
74415;SDS011;62850;42.428;25.618;2022-09-09T14:48:44;5.40;;;3.25;;
74415;SDS011;62850;42.428;25.618;2022-09-09T14:51:11;6.70;;;3.33;;
74415;SDS011;62850;42.428;25.618;2022-09-09T14:53:38;8.80;;;5.32;;
74415;SDS011;62850;42.428;25.618;2022-09-09T14:56:25;9.93;;;5.78;;
74415;SDS011;62850;42.428;25.618;2022-09-09T14:58:53;8.93;;;3.67;;
74415;SDS011;62850;42.428;25.618;2022-09-09T15:01:20;6.18;;;3.13;;
74415;SDS011;62850;42.428;25.618;2022-09-09T15:03:50;6.10;;;3.47;;
74415;SDS011;62850;42.428;25.618;2022-09-09T15:06:18;6.97;;;3.35;;
74415;SDS011;62850;42.428;25.618;2022-09-09T15:08:45;7.20;;;3.20;;
74415;SDS011;62850;42.428;25.618;2022-09-09T15:11:12;5.20;;;2.75;;
74415;SDS011;62850;42.428;25.618;2022-09-09T15:13:39;7.35;;;2.80;;
74415;SDS011;62850;42.428;25.618;2022-09-09T15:16:07;9.25;;;3.20;;
74415;SDS011;62850;42.428;25.618;2022-09-09T15:18:34;7.78;;;3.28;;
74415;SDS011;62850;42.428;25.618;2022-09-09T15:21:04;8.32;;;3.05;;
74415;SDS011;62850;42.428;25.618;2022-09-09T15:23:33;6.53;;;3.28;;
74415;SDS011;62850;42.428;25.618;2022-09-09T15:26:00;8.82;;;3.65;;
74415;SDS011;62850;42.428;25.618;2022-09-09T15:28:25;7.75;;;3.70;;
74415;SDS011;62850;42.428;25.618;2022-09-09T15:30:51;9.43;;;3.33;;
74415;SDS011;62850;42.428;25.618;2022-09-09T15:33:19;8.63;;;3.42;;
74415;SDS011;62850;42.428;25.618;2022-09-09T15:35:45;12.65;;;4.13;;
74415;SDS011;62850;42.428;25.618;2022-09-09T15:38:11;8.23;;;3.78;;
74415;SDS011;62850;42.428;25.618;2022-09-09T15:40:41;8.13;;;3.75;;
74415;SDS011;62850;42.428;25.618;2022-09-09T15:43:07;9.88;;;4.10;;
74415;SDS011;62850;42.428;25.618;2022-09-09T15:45:35;7.03;;;2.95;;
74415;SDS011;62850;42.428;25.618;2022-09-09T15:48:01;6.75;;;3.38;;
74415;SDS011;62850;42.428;25.618;2022-09-09T15:50:26;11.45;;;3.70;;
74415;SDS011;62850;42.428;25.618;2022-09-09T15:52:54;10.90;;;3.60;;
74415;SDS011;62850;42.428;25.618;2022-09-09T15:55:19;5.85;;;3.10;;
74415;SDS011;62850;42.428;25.618;2022-09-09T15:57:45;7.03;;;3.42;;
74415;SDS011;62850;42.428;25.618;2022-09-09T16:00:11;9.93;;;3.97;;
74415;SDS011;62850;42.428;25.618;2022-09-09T16:02:38;7.82;;;3.25;;
74415;SDS011;62850;42.428;25.618;2022-09-09T16:05:04;11.88;;;3.42;;
74415;SDS011;62850;42.428;25.618;2022-09-09T16:07:31;10.68;;;3.67;;
74415;SDS011;62850;42.428;25.618;2022-09-09T16:09:56;7.03;;;3.30;;
74415;SDS011;62850;42.428;25.618;2022-09-09T16:12:22;6.40;;;3.78;;
74415;SDS011;62850;42.428;25.618;2022-09-09T16:14:47;11.00;;;4.25;;
74415;SDS011;62850;42.428;25.618;2022-09-09T16:17:13;8.52;;;4.00;;
74415;SDS011;62850;42.428;25.618;2022-09-09T16:19:40;10.48;;;4.00;;
74415;SDS011;62850;42.428;25.618;2022-09-09T16:22:05;11.02;;;5.07;;
74415;SDS011;62850;42.428;25.618;2022-09-09T16:24:31;11.30;;;5.10;;
74415;SDS011;62850;42.428;25.618;2022-09-09T16:26:57;12.15;;;5.28;;
74415;SDS011;62850;42.428;25.618;2022-09-09T16:29:23;11.65;;;4.93;;
74415;SDS011;62850;42.428;25.618;2022-09-09T16:31:51;9.90;;;4.95;;
74415;SDS011;62850;42.428;25.618;2022-09-09T16:34:17;9.10;;;4.60;;
74415;SDS011;62850;42.428;25.618;2022-09-09T16:36:43;9.00;;;4.20;;
74415;SDS011;62850;42.428;25.618;2022-09-09T16:39:11;11.68;;;4.35;;
74415;SDS011;62850;42.428;25.618;2022-09-09T16:41:41;15.23;;;5.53;;
74415;SDS011;62850;42.428;25.618;2022-09-09T16:44:09;16.02;;;8.13;;
74415;SDS011;62850;42.428;25.618;2022-09-09T16:46:37;17.25;;;8.15;;
74415;SDS011;62850;42.428;25.618;2022-09-09T16:49:05;15.75;;;8.27;;
74415;SDS011;62850;42.428;25.618;2022-09-09T16:51:33;15.27;;;6.68;;
74415;SDS011;62850;42.428;25.618;2022-09-09T16:54:01;16.48;;;7.03;;
74415;SDS011;62850;42.428;25.618;2022-09-09T16:56:30;13.10;;;5.97;;
74415;SDS011;62850;42.428;25.618;2022-09-09T16:59:02;11.80;;;4.50;;
74415;SDS011;62850;42.428;25.618;2022-09-09T17:01:31;9.57;;;4.28;;
74415;SDS011;62850;42.428;25.618;2022-09-09T17:04:00;10.77;;;5.05;;
74415;SDS011;62850;42.428;25.618;2022-09-09T17:06:28;8.30;;;4.65;;
74415;SDS011;62850;42.428;25.618;2022-09-09T17:08:58;12.40;;;4.95;;
74415;SDS011;62850;42.428;25.618;2022-09-09T17:11:26;12.82;;;4.75;;
74415;SDS011;62850;42.428;25.618;2022-09-09T17:13:52;10.18;;;4.15;;
74415;SDS011;62850;42.428;25.618;2022-09-09T17:16:20;11.68;;;5.10;;
74415;SDS011;62850;42.428;25.618;2022-09-09T17:18:47;11.07;;;4.80;;
74415;SDS011;62850;42.428;25.618;2022-09-09T17:21:17;8.45;;;4.65;;
74415;SDS011;62850;42.428;25.618;2022-09-09T17:23:45;11.65;;;4.93;;
74415;SDS011;62850;42.428;25.618;2022-09-09T17:26:13;13.73;;;5.30;;
74415;SDS011;62850;42.428;25.618;2022-09-09T17:28:41;8.90;;;4.75;;
74415;SDS011;62850;42.428;25.618;2022-09-09T17:31:09;10.98;;;4.72;;